sensor_id;sensor_type;location;lat;lon;timestamp;pressure;altitude;pressure_sealevel;temperature;humidity
49451;BME280;35336;48.400;10.886;2024-02-26T00:00:07;94518.84;;;3.24;87.20
49451;BME280;35336;48.400;10.886;2024-02-26T00:00:23;94520.47;;;3.25;87.09
49451;BME280;35336;48.400;10.886;2024-02-26T00:00:38;94528.38;;;3.25;86.86
49451;BME280;35336;48.400;10.886;2024-02-26T00:00:55;94528.16;;;3.27;87.02
49451;BME280;35336;48.400;10.886;2024-02-26T00:01:11;94504.41;;;3.13;86.97
49451;BME280;35336;48.400;10.886;2024-02-26T00:01:31;94510.28;;;3.15;86.68
49451;BME280;35336;48.400;10.886;2024-02-26T00:01:47;94532.63;;;3.26;86.15
49451;BME280;35336;48.400;10.886;2024-02-26T00:02:02;94513.72;;;3.16;86.38
49451;BME280;35336;48.400;10.886;2024-02-26T00:02:18;94524.31;;;3.23;86.57
49451;BME280;35336;48.400;10.886;2024-02-26T00:02:33;94522.69;;;3.22;86.43
49451;BME280;35336;48.400;10.886;2024-02-26T00:02:49;94528.53;;;3.17;86.43
49451;BME280;35336;48.400;10.886;2024-02-26T00:03:04;94520.44;;;3.18;86.86
49451;BME280;35336;48.400;10.886;2024-02-26T00:03:22;94524.09;;;3.17;86.57
49451;BME280;35336;48.400;10.886;2024-02-26T00:03:37;94525.31;;;3.22;86.92
49451;BME280;35336;48.400;10.886;2024-02-26T00:03:55;94531.56;;;3.21;87.37
49451;BME280;35336;48.400;10.886;2024-02-26T00:04:11;94517.19;;;3.16;86.85
49451;BME280;35336;48.400;10.886;2024-02-26T00:04:29;94530.78;;;3.20;86.74
49451;BME280;35336;48.400;10.886;2024-02-26T00:04:44;94518.63;;;3.19;87.17
49451;BME280;35336;48.400;10.886;2024-02-26T00:04:59;94528.16;;;3.20;87.04
49451;BME280;35336;48.400;10.886;2024-02-26T00:05:14;94528.16;;;3.20;86.97
49451;BME280;35336;48.400;10.886;2024-02-26T00:05:30;94509.44;;;3.08;87.25
49451;BME280;35336;48.400;10.886;2024-02-26T00:05:50;94517.41;;;3.22;87.29
49451;BME280;35336;48.400;10.886;2024-02-26T00:06:05;94521.25;;;3.19;86.84
49451;BME280;35336;48.400;10.886;2024-02-26T00:06:20;94526.09;;;3.15;86.94
49451;BME280;35336;48.400;10.886;2024-02-26T00:06:36;94510.44;;;3.07;87.24
49451;BME280;35336;48.400;10.886;2024-02-26T00:06:53;94521.19;;;3.12;87.41
49451;BME280;35336;48.400;10.886;2024-02-26T00:07:08;94525.47;;;3.13;87.59
49451;BME280;35336;48.400;10.886;2024-02-26T00:07:24;94521.19;;;3.06;87.98
49451;BME280;35336;48.400;10.886;2024-02-26T00:07:39;94525.88;;;3.10;87.84
49451;BME280;35336;48.400;10.886;2024-02-26T00:07:54;94524.25;;;3.09;88.23
49451;BME280;35336;48.400;10.886;2024-02-26T00:08:12;94527.69;;;3.10;87.98
49451;BME280;35336;48.400;10.886;2024-02-26T00:08:30;94515.50;;;3.02;88.18
49451;BME280;35336;48.400;10.886;2024-02-26T00:08:45;94518.97;;;3.09;88.03
49451;BME280;35336;48.400;10.886;2024-02-26T00:09:00;94514.72;;;3.08;88.38
49451;BME280;35336;48.400;10.886;2024-02-26T00:09:16;94522.63;;;3.08;88.04
49451;BME280;35336;48.400;10.886;2024-02-26T00:09:32;94516.72;;;3.06;87.94
49451;BME280;35336;48.400;10.886;2024-02-26T00:09:47;94523.84;;;3.12;88.22
49451;BME280;35336;48.400;10.886;2024-02-26T00:10:03;94519.97;;;3.08;88.11
49451;BME280;35336;48.400;10.886;2024-02-26T00:10:18;94485.06;;;2.93;87.89
49451;BME280;35336;48.400;10.886;2024-02-26T00:10:36;94519.59;;;3.11;87.87
49451;BME280;35336;48.400;10.886;2024-02-26T00:10:51;94520.03;;;3.15;87.93
49451;BME280;35336;48.400;10.886;2024-02-26T00:11:09;94520.81;;;3.15;87.78
49451;BME280;35336;48.400;10.886;2024-02-26T00:11:26;94513.50;;;3.11;87.82
49451;BME280;35336;48.400;10.886;2024-02-26T00:11:42;94515.94;;;3.12;88.25
49451;BME280;35336;48.400;10.886;2024-02-26T00:11:57;94517.78;;;3.12;88.21
49451;BME280;35336;48.400;10.886;2024-02-26T00:12:12;94506.75;;;3.01;88.60
49451;BME280;35336;48.400;10.886;2024-02-26T00:12:27;94502.91;;;2.97;88.66
49451;BME280;35336;48.400;10.886;2024-02-26T00:12:43;94516.28;;;2.96;89.26
49451;BME280;35336;48.400;10.886;2024-02-26T00:12:58;94515.44;;;2.95;89.41
49451;BME280;35336;48.400;10.886;2024-02-26T00:13:13;94515.22;;;2.90;89.71
49451;BME280;35336;48.400;10.886;2024-02-26T00:13:31;94522.13;;;2.98;90.07
49451;BME280;35336;48.400;10.886;2024-02-26T00:13:46;94515.44;;;2.89;89.78
49451;BME280;35336;48.400;10.886;2024-02-26T00:14:01;94522.34;;;2.96;90.07
49451;BME280;35336;48.400;10.886;2024-02-26T00:14:17;94526.19;;;2.94;89.71
49451;BME280;35336;48.400;10.886;2024-02-26T00:14:32;94528.19;;;2.92;90.05
49451;BME280;35336;48.400;10.886;2024-02-26T00:14:50;94500.56;;;2.74;89.81
49451;BME280;35336;48.400;10.886;2024-02-26T00:15:08;94524.13;;;2.89;90.17
49451;BME280;35336;48.400;10.886;2024-02-26T00:15:24;94512.16;;;2.86;90.14
49451;BME280;35336;48.400;10.886;2024-02-26T00:15:41;94522.91;;;2.92;90.40
49451;BME280;35336;48.400;10.886;2024-02-26T00:15:59;94532.06;;;2.96;90.35
49451;BME280;35336;48.400;10.886;2024-02-26T00:16:16;94520.28;;;2.92;90.06
49451;BME280;35336;48.400;10.886;2024-02-26T00:16:32;94525.19;;;2.95;90.12
49451;BME280;35336;48.400;10.886;2024-02-26T00:16:47;94531.66;;;2.99;89.51
49451;BME280;35336;48.400;10.886;2024-02-26T00:17:02;94519.91;;;2.95;89.09
49451;BME280;35336;48.400;10.886;2024-02-26T00:17:18;94528.44;;;2.97;89.33
49451;BME280;35336;48.400;10.886;2024-02-26T00:17:35;94520.13;;;2.93;88.87
49451;BME280;35336;48.400;10.886;2024-02-26T00:17:51;94527.19;;;2.93;88.59
49451;BME280;35336;48.400;10.886;2024-02-26T00:18:08;94514.22;;;2.91;88.62
49451;BME280;35336;48.400;10.886;2024-02-26T00:18:26;94521.28;;;2.91;89.07
49451;BME280;35336;48.400;10.886;2024-02-26T00:18:44;94525.13;;;2.88;88.70
49451;BME280;35336;48.400;10.886;2024-02-26T00:19:00;94522.69;;;2.86;88.69
49451;BME280;35336;48.400;10.886;2024-02-26T00:19:15;94502.19;;;2.75;88.64
49451;BME280;35336;48.400;10.886;2024-02-26T00:19:30;94513.16;;;2.85;88.66
49451;BME280;35336;48.400;10.886;2024-02-26T00:19:46;94515.59;;;2.87;88.60
49451;BME280;35336;48.400;10.886;2024-02-26T00:20:02;94521.06;;;2.85;88.79
49451;BME280;35336;48.400;10.886;2024-02-26T00:20:18;94511.31;;;2.79;88.55
49451;BME280;35336;48.400;10.886;2024-02-26T00:20:33;94514.56;;;2.81;88.61
49451;BME280;35336;48.400;10.886;2024-02-26T00:20:48;94512.16;;;2.86;88.56
49451;BME280;35336;48.400;10.886;2024-02-26T00:21:04;94517.44;;;2.86;88.59
49451;BME280;35336;48.400;10.886;2024-02-26T00:21:19;94496.91;;;2.75;88.67
49451;BME280;35336;48.400;10.886;2024-02-26T00:21:34;94510.53;;;2.85;88.64
49451;BME280;35336;48.400;10.886;2024-02-26T00:21:50;94511.78;;;2.90;88.79
49451;BME280;35336;48.400;10.886;2024-02-26T00:22:05;94503.03;;;2.82;88.58
49451;BME280;35336;48.400;10.886;2024-02-26T00:22:20;94518.06;;;2.89;88.52
49451;BME280;35336;48.400;10.886;2024-02-26T00:22:36;94507.28;;;2.83;88.57
49451;BME280;35336;48.400;10.886;2024-02-26T00:22:53;94495.09;;;2.76;88.37
49451;BME280;35336;48.400;10.886;2024-02-26T00:23:08;94519.47;;;2.91;88.40
49451;BME280;35336;48.400;10.886;2024-02-26T00:23:24;94519.69;;;2.90;88.40
49451;BME280;35336;48.400;10.886;2024-02-26T00:23:39;94513.38;;;2.91;88.59
49451;BME280;35336;48.400;10.886;2024-02-26T00:23:54;94500.84;;;2.86;88.55
49451;BME280;35336;48.400;10.886;2024-02-26T00:24:10;94517.66;;;2.92;88.44
49451;BME280;35336;48.400;10.886;2024-02-26T00:24:25;94515.84;;;2.92;88.35
49451;BME280;35336;48.400;10.886;2024-02-26T00:24:40;94515.84;;;2.92;88.60
49451;BME280;35336;48.400;10.886;2024-02-26T00:24:56;94514.84;;;2.93;88.72
49451;BME280;35336;48.400;10.886;2024-02-26T00:25:11;94515.84;;;2.92;88.71
49451;BME280;35336;48.400;10.886;2024-02-26T00:25:26;94510.53;;;2.85;88.87
49451;BME280;35336;48.400;10.886;2024-02-26T00:25:42;94498.78;;;2.81;88.74
49451;BME280;35336;48.400;10.886;2024-02-26T00:25:57;94513.59;;;2.89;89.08
49451;BME280;35336;48.400;10.886;2024-02-26T00:26:12;94497.94;;;2.81;88.85
49451;BME280;35336;48.400;10.886;2024-02-26T00:26:28;94510.75;;;2.91;88.97
49451;BME280;35336;48.400;10.886;2024-02-26T00:26:43;94511.38;;;2.93;89.22
49451;BME280;35336;48.400;10.886;2024-02-26T00:26:59;94512.38;;;2.92;88.82
49451;BME280;35336;48.400;10.886;2024-02-26T00:27:14;94507.09;;;2.85;89.09
49451;BME280;35336;48.400;10.886;2024-02-26T00:27:30;94515.44;;;2.89;89.27
49451;BME280;35336;48.400;10.886;2024-02-26T00:27:45;94511.78;;;2.90;89.02
49451;BME280;35336;48.400;10.886;2024-02-26T00:28:00;94510.75;;;2.91;89.25
49451;BME280;35336;48.400;10.886;2024-02-26T00:28:15;94506.53;;;2.90;89.61
49451;BME280;35336;48.400;10.886;2024-02-26T00:28:31;94509.59;;;2.93;89.26
49451;BME280;35336;48.400;10.886;2024-02-26T00:28:46;94506.13;;;2.93;89.51
49451;BME280;35336;48.400;10.886;2024-02-26T00:29:01;94510.59;;;2.92;89.33
49451;BME280;35336;48.400;10.886;2024-02-26T00:29:19;94482.13;;;2.74;88.90
49451;BME280;35336;48.400;10.886;2024-02-26T00:29:34;94516.03;;;2.91;88.99
49451;BME280;35336;48.400;10.886;2024-02-26T00:29:49;94514.41;;;2.90;89.18
49451;BME280;35336;48.400;10.886;2024-02-26T00:30:05;94500.41;;;2.82;89.28
49451;BME280;35336;48.400;10.886;2024-02-26T00:30:21;94493.50;;;2.81;89.41
49451;BME280;35336;48.400;10.886;2024-02-26T00:30:36;94513.38;;;2.91;89.41
49451;BME280;35336;48.400;10.886;2024-02-26T00:30:51;94516.03;;;2.91;89.18
49451;BME280;35336;48.400;10.886;2024-02-26T00:31:07;94510.97;;;2.89;89.07
49451;BME280;35336;48.400;10.886;2024-02-26T00:31:24;94508.91;;;2.84;89.14
49451;BME280;35336;48.400;10.886;2024-02-26T00:31:42;94510.09;;;2.82;89.18
49451;BME280;35336;48.400;10.886;2024-02-26T00:31:57;94508.72;;;2.86;89.17
49451;BME280;35336;48.400;10.886;2024-02-26T00:32:12;94508.53;;;2.88;89.37
49451;BME280;35336;48.400;10.886;2024-02-26T00:32:28;94507.28;;;2.83;89.49
49451;BME280;35336;48.400;10.886;2024-02-26T00:32:43;94519.06;;;2.88;89.76
49451;BME280;35336;48.400;10.886;2024-02-26T00:32:58;94499.56;;;2.82;89.54
49451;BME280;35336;48.400;10.886;2024-02-26T00:33:16;94508.31;;;2.89;89.69
49451;BME280;35336;48.400;10.886;2024-02-26T00:33:34;94511.78;;;2.90;89.66
49451;BME280;35336;48.400;10.886;2024-02-26T00:33:49;94507.31;;;2.90;89.39
49451;BME280;35336;48.400;10.886;2024-02-26T00:34:04;94506.91;;;2.86;89.56
49451;BME280;35336;48.400;10.886;2024-02-26T00:34:20;94512.59;;;2.90;89.24
49451;BME280;35336;48.400;10.886;2024-02-26T00:34:37;94493.50;;;2.81;89.52
49451;BME280;35336;48.400;10.886;2024-02-26T00:34:53;94510.75;;;2.91;89.32
49451;BME280;35336;48.400;10.886;2024-02-26T00:35:08;94506.53;;;2.90;89.16
49451;BME280;35336;48.400;10.886;2024-02-26T00:35:23;94509.16;;;2.90;89.06
49451;BME280;35336;48.400;10.886;2024-02-26T00:35:38;94479.66;;;2.66;89.04
49451;BME280;35336;48.400;10.886;2024-02-26T00:35:56;94506.69;;;2.81;89.08
49451;BME280;35336;48.400;10.886;2024-02-26T00:36:11;94512.53;;;2.83;89.16
49451;BME280;35336;48.400;10.886;2024-02-26T00:36:27;94501.22;;;2.83;89.25
49451;BME280;35336;48.400;10.886;2024-02-26T00:36:42;94509.09;;;2.83;89.03
49451;BME280;35336;48.400;10.886;2024-02-26T00:36:57;94512.53;;;2.83;89.19
49451;BME280;35336;48.400;10.886;2024-02-26T00:37:12;94507.28;;;2.83;89.45
49451;BME280;35336;48.400;10.886;2024-02-26T00:37:28;94505.66;;;2.82;89.44
49451;BME280;35336;48.400;10.886;2024-02-26T00:37:43;94502.00;;;2.83;89.37
49451;BME280;35336;48.400;10.886;2024-02-26T00:38:01;94511.72;;;2.83;89.35
49451;BME280;35336;48.400;10.886;2024-02-26T00:38:16;94511.94;;;2.81;89.67
49451;BME280;35336;48.400;10.886;2024-02-26T00:38:32;94506.84;;;2.80;89.43
49451;BME280;35336;48.400;10.886;2024-02-26T00:38:47;94503.84;;;2.83;89.55
49451;BME280;35336;48.400;10.886;2024-02-26T00:39:02;94496.28;;;2.73;89.39
49451;BME280;35336;48.400;10.886;2024-02-26T00:39:20;94514.56;;;2.81;89.56
49451;BME280;35336;48.400;10.886;2024-02-26T00:39:38;94497.09;;;2.74;89.55
49451;BME280;35336;48.400;10.886;2024-02-26T00:39:53;94506.47;;;2.83;89.58
49451;BME280;35336;48.400;10.886;2024-02-26T00:40:08;94503.63;;;2.84;89.59
49451;BME280;35336;48.400;10.886;2024-02-26T00:40:26;94512.38;;;2.85;89.63
49451;BME280;35336;48.400;10.886;2024-02-26T00:40:41;94509.09;;;2.83;89.37
49451;BME280;35336;48.400;10.886;2024-02-26T00:40:59;94505.91;;;2.88;89.45
49451;BME280;35336;48.400;10.886;2024-02-26T00:41:14;94504.91;;;2.89;89.32
49451;BME280;35336;48.400;10.886;2024-02-26T00:41:32;94512.78;;;2.89;89.04
49451;BME280;35336;48.400;10.886;2024-02-26T00:41:48;94509.97;;;2.90;89.04
49451;BME280;35336;48.400;10.886;2024-02-26T00:42:03;94496.56;;;2.85;89.16
49451;BME280;35336;48.400;10.886;2024-02-26T00:42:18;94502.06;;;2.90;89.05
49451;BME280;35336;48.400;10.886;2024-02-26T00:42:34;94509.75;;;2.92;88.65
49451;BME280;35336;48.400;10.886;2024-02-26T00:42:49;94495.16;;;2.82;88.93
49451;BME280;35336;48.400;10.886;2024-02-26T00:43:04;94501.44;;;2.88;88.82
49451;BME280;35336;48.400;10.886;2024-02-26T00:43:20;94511.59;;;2.91;88.82
49451;BME280;35336;48.400;10.886;2024-02-26T00:43:37;94507.31;;;2.90;88.91
49451;BME280;35336;48.400;10.886;2024-02-26T00:43:52;94513.38;;;2.91;88.91
49451;BME280;35336;48.400;10.886;2024-02-26T00:44:08;94506.31;;;2.91;88.74
49451;BME280;35336;48.400;10.886;2024-02-26T00:44:23;94507.69;;;2.87;88.88
49451;BME280;35336;48.400;10.886;2024-02-26T00:44:38;94502.84;;;2.91;88.89
49451;BME280;35336;48.400;10.886;2024-02-26T00:44:53;94492.09;;;2.85;88.84
49451;BME280;35336;48.400;10.886;2024-02-26T00:45:09;94509.75;;;2.92;88.83
49451;BME280;35336;48.400;10.886;2024-02-26T00:45:27;94510.75;;;2.91;88.80
49451;BME280;35336;48.400;10.886;2024-02-26T00:45:42;94503.06;;;2.89;88.85
49451;BME280;35336;48.400;10.886;2024-02-26T00:45:57;94508.13;;;2.91;88.95
49451;BME280;35336;48.400;10.886;2024-02-26T00:46:13;94489.88;;;2.82;88.76
49451;BME280;35336;48.400;10.886;2024-02-26T00:46:28;94506.31;;;2.91;88.79
49451;BME280;35336;48.400;10.886;2024-02-26T00:46:43;94509.75;;;2.92;88.84
49451;BME280;35336;48.400;10.886;2024-02-26T00:46:59;94502.25;;;2.89;88.60
49451;BME280;35336;48.400;10.886;2024-02-26T00:47:14;94509.75;;;2.92;88.78
49451;BME280;35336;48.400;10.886;2024-02-26T00:47:36;94512.78;;;2.89;88.50
49451;BME280;35336;48.400;10.886;2024-02-26T00:47:52;94499.00;;;2.86;88.80
49451;BME280;35336;48.400;10.886;2024-02-26T00:48:07;94518.28;;;2.94;88.45
49451;BME280;35336;48.400;10.886;2024-02-26T00:48:22;94506.13;;;2.93;88.79
49451;BME280;35336;48.400;10.886;2024-02-26T00:48:38;94488.63;;;2.78;88.44
49451;BME280;35336;48.400;10.886;2024-02-26T00:48:53;94507.31;;;2.90;88.67
49451;BME280;35336;48.400;10.886;2024-02-26T00:49:08;94505.91;;;2.88;88.91
49451;BME280;35336;48.400;10.886;2024-02-26T00:49:24;94504.91;;;2.89;88.80
49451;BME280;35336;48.400;10.886;2024-02-26T00:49:39;94509.91;;;2.83;88.94
49451;BME280;35336;48.400;10.886;2024-02-26T00:49:57;94491.47;;;2.77;88.79
49451;BME280;35336;48.400;10.886;2024-02-26T00:50:13;94508.72;;;2.86;89.04
49451;BME280;35336;48.400;10.886;2024-02-26T00:50:28;94509.53;;;2.86;89.34
49451;BME280;35336;48.400;10.886;2024-02-26T00:50:43;94498.78;;;2.81;89.46
49451;BME280;35336;48.400;10.886;2024-02-26T00:50:59;94510.72;;;2.84;89.35
49451;BME280;35336;48.400;10.886;2024-02-26T00:51:14;94502.00;;;2.77;89.05
49451;BME280;35336;48.400;10.886;2024-02-26T00:51:34;94512.53;;;2.83;89.21
49451;BME280;35336;48.400;10.886;2024-02-26T00:51:51;94509.91;;;2.83;89.49
49451;BME280;35336;48.400;10.886;2024-02-26T00:52:07;94503.84;;;2.83;89.11
49451;BME280;35336;48.400;10.886;2024-02-26T00:52:25;94508.31;;;2.82;89.34
49451;BME280;35336;48.400;10.886;2024-02-26T00:52:40;94507.47;;;2.82;89.26
49451;BME280;35336;48.400;10.886;2024-02-26T00:52:56;94491.47;;;2.77;89.10
49451;BME280;35336;48.400;10.886;2024-02-26T00:53:11;94514.38;;;2.83;89.12
49451;BME280;35336;48.400;10.886;2024-02-26T00:53:26;94506.69;;;2.81;88.90
49451;BME280;35336;48.400;10.886;2024-02-26T00:53:42;94513.38;;;2.84;89.00
49451;BME280;35336;48.400;10.886;2024-02-26T00:53:59;94503.63;;;2.84;89.06
49451;BME280;35336;48.400;10.886;2024-02-26T00:54:17;94486.13;;;2.70;89.16
49451;BME280;35336;48.400;10.886;2024-02-26T00:54:32;94502.00;;;2.77;89.20
49451;BME280;35336;48.400;10.886;2024-02-26T00:54:50;94502.84;;;2.84;88.88
49451;BME280;35336;48.400;10.886;2024-02-26T00:55:05;94508.09;;;2.84;88.69
49451;BME280;35336;48.400;10.886;2024-02-26T00:55:23;94502.84;;;2.84;88.62
49451;BME280;35336;48.400;10.886;2024-02-26T00:55:39;94506.47;;;2.83;88.80
49451;BME280;35336;48.400;10.886;2024-02-26T00:55:54;94507.28;;;2.83;88.94
49451;BME280;35336;48.400;10.886;2024-02-26T00:56:09;94502.00;;;2.77;88.62
49451;BME280;35336;48.400;10.886;2024-02-26T00:56:25;94491.41;;;2.70;88.49
49451;BME280;35336;48.400;10.886;2024-02-26T00:56:40;94506.25;;;2.78;88.82
49451;BME280;35336;48.400;10.886;2024-02-26T00:56:57;94506.03;;;2.79;88.99
49451;BME280;35336;48.400;10.886;2024-02-26T00:57:13;94508.69;;;2.79;89.07
49451;BME280;35336;48.400;10.886;2024-02-26T00:57:28;94512.09;;;2.80;89.09
49451;BME280;35336;48.400;10.886;2024-02-26T00:57:43;94486.91;;;2.64;88.89
49451;BME280;35336;48.400;10.886;2024-02-26T00:57:59;94498.72;;;2.75;89.23
49451;BME280;35336;48.400;10.886;2024-02-26T00:58:16;94514.56;;;2.81;89.17
49451;BME280;35336;48.400;10.886;2024-02-26T00:58:32;94509.47;;;2.80;88.99
49451;BME280;35336;48.400;10.886;2024-02-26T00:58:49;94508.31;;;2.82;88.87
49451;BME280;35336;48.400;10.886;2024-02-26T00:59:05;94515.16;;;2.83;88.83
49451;BME280;35336;48.400;10.886;2024-02-26T00:59:20;94521.06;;;2.85;89.09
49451;BME280;35336;48.400;10.886;2024-02-26T00:59:35;94505.84;;;2.81;88.92
49451;BME280;35336;48.400;10.886;2024-02-26T00:59:53;94521.25;;;2.84;88.77
49451;BME280;35336;48.400;10.886;2024-02-26T01:00:08;94517.81;;;2.83;88.60
49451;BME280;35336;48.400;10.886;2024-02-26T01:00:23;94505.63;;;2.76;88.80
49451;BME280;35336;48.400;10.886;2024-02-26T01:00:39;94503.56;;;2.71;88.55
49451;BME280;35336;48.400;10.886;2024-02-26T01:00:54;94520.63;;;2.82;88.79
49451;BME280;35336;48.400;10.886;2024-02-26T01:01:09;94516.19;;;2.82;88.93
49451;BME280;35336;48.400;10.886;2024-02-26T01:01:25;94489.78;;;2.69;88.88
49451;BME280;35336;48.400;10.886;2024-02-26T01:01:40;94507.88;;;2.79;89.01
49451;BME280;35336;48.400;10.886;2024-02-26T01:01:55;94492.81;;;2.66;88.33
49451;BME280;35336;48.400;10.886;2024-02-26T01:02:10;94513.31;;;2.77;88.58
49451;BME280;35336;48.400;10.886;2024-02-26T01:02:26;94513.94;;;2.79;88.59
49451;BME280;35336;48.400;10.886;2024-02-26T01:02:41;94494.25;;;2.68;88.78
49451;BME280;35336;48.400;10.886;2024-02-26T01:03:01;94508.88;;;2.78;89.04
49451;BME280;35336;48.400;10.886;2024-02-26T01:03:19;94508.69;;;2.79;88.91
49451;BME280;35336;48.400;10.886;2024-02-26T01:03:35;94504.41;;;2.78;88.81
49451;BME280;35336;48.400;10.886;2024-02-26T01:03:55;94498.94;;;2.73;88.75
49451;BME280;35336;48.400;10.886;2024-02-26T01:04:12;94504.63;;;2.83;89.08
49451;BME280;35336;48.400;10.886;2024-02-26T01:04:27;94507.91;;;2.85;88.87
49451;BME280;35336;48.400;10.886;2024-02-26T01:04:43;94509.31;;;2.88;88.93
49451;BME280;35336;48.400;10.886;2024-02-26T01:05:03;94502.44;;;2.87;88.56
49451;BME280;35336;48.400;10.886;2024-02-26T01:05:23;94499.63;;;2.89;88.69
49451;BME280;35336;48.400;10.886;2024-02-26T01:05:40;94482.72;;;2.76;88.63
49451;BME280;35336;48.400;10.886;2024-02-26T01:05:56;94491.47;;;2.83;88.38
49451;BME280;35336;48.400;10.886;2024-02-26T01:06:13;94500.06;;;2.92;88.45
49451;BME280;35336;48.400;10.886;2024-02-26T01:06:31;94497.22;;;2.94;88.34
49451;BME280;35336;48.400;10.886;2024-02-26T01:06:48;94499.84;;;2.94;88.38
49451;BME280;35336;48.400;10.886;2024-02-26T01:07:04;94502.47;;;2.94;88.09
49451;BME280;35336;48.400;10.886;2024-02-26T01:07:21;94492.34;;;2.91;88.02
49451;BME280;35336;48.400;10.886;2024-02-26T01:07:36;94493.94;;;2.85;88.01
49451;BME280;35336;48.400;10.886;2024-02-26T01:07:52;94489.47;;;2.85;88.13
49451;BME280;35336;48.400;10.886;2024-02-26T01:08:07;94499.44;;;2.90;88.32
49451;BME280;35336;48.400;10.886;2024-02-26T01:08:22;94491.91;;;2.87;88.34
49451;BME280;35336;48.400;10.886;2024-02-26T01:08:40;94501.63;;;2.86;88.39
49451;BME280;35336;48.400;10.886;2024-02-26T01:08:55;94492.31;;;2.84;88.67
49451;BME280;35336;48.400;10.886;2024-02-26T01:09:16;94482.34;;;2.79;89.16
49451;BME280;35336;48.400;10.886;2024-02-26T01:09:31;94493.09;;;2.84;89.16
49451;BME280;35336;48.400;10.886;2024-02-26T01:09:48;94496.75;;;2.83;88.95
49451;BME280;35336;48.400;10.886;2024-02-26T01:10:06;94498.78;;;2.81;89.16
49451;BME280;35336;48.400;10.886;2024-02-26T01:10:24;94499.78;;;2.80;89.33
49451;BME280;35336;48.400;10.886;2024-02-26T01:10:39;94493.88;;;2.78;89.24
49451;BME280;35336;48.400;10.886;2024-02-26T01:10:55;94491.47;;;2.77;89.38
49451;BME280;35336;48.400;10.886;2024-02-26T01:11:10;94498.53;;;2.76;89.70
49451;BME280;35336;48.400;10.886;2024-02-26T01:11:26;94473.13;;;2.62;90.09
49451;BME280;35336;48.400;10.886;2024-02-26T01:11:41;94487.56;;;2.73;90.11
49451;BME280;35336;48.400;10.886;2024-02-26T01:11:56;94491.84;;;2.74;90.22
49451;BME280;35336;48.400;10.886;2024-02-26T01:12:12;94496.66;;;2.70;90.01
49451;BME280;35336;48.400;10.886;2024-02-26T01:12:27;94501.75;;;2.72;90.61
49451;BME280;35336;48.400;10.886;2024-02-26T01:12:43;94497.50;;;2.70;90.65
49451;BME280;35336;48.400;10.886;2024-02-26T01:12:58;94494.88;;;2.70;91.07
49451;BME280;35336;48.400;10.886;2024-02-26T01:13:13;94469.03;;;2.52;91.00
49451;BME280;35336;48.400;10.886;2024-02-26T01:13:30;94499.94;;;2.72;90.95
49451;BME280;35336;48.400;10.886;2024-02-26T01:13:46;94479.41;;;2.61;91.07
49451;BME280;35336;48.400;10.886;2024-02-26T01:14:03;94497.94;;;2.74;91.06
49451;BME280;35336;48.400;10.886;2024-02-26T01:14:18;94497.28;;;2.72;90.87
49451;BME280;35336;48.400;10.886;2024-02-26T01:14:34;94479.41;;;2.61;90.75
49451;BME280;35336;48.400;10.886;2024-02-26T01:14:49;94471.69;;;2.59;90.73
49451;BME280;35336;48.400;10.886;2024-02-26T01:15:10;94495.88;;;2.76;90.76
49451;BME280;35336;48.400;10.886;2024-02-26T01:15:25;94465.81;;;2.57;90.60
49451;BME280;35336;48.400;10.886;2024-02-26T01:15:40;94485.13;;;2.71;90.44
49451;BME280;35336;48.400;10.886;2024-02-26T01:15:56;94486.78;;;2.72;90.62
49451;BME280;35336;48.400;10.886;2024-02-26T01:16:13;94483.13;;;2.73;90.70
49451;BME280;35336;48.400;10.886;2024-02-26T01:16:30;94474.81;;;2.69;90.48
49451;BME280;35336;48.400;10.886;2024-02-26T01:16:46;94489.69;;;2.84;90.53
49451;BME280;35336;48.400;10.886;2024-02-26T01:17:01;94490.47;;;2.84;89.92
49451;BME280;35336;48.400;10.886;2024-02-26T01:17:16;94484.63;;;2.82;89.85
49451;BME280;35336;48.400;10.886;2024-02-26T01:17:32;94449.66;;;2.60;89.73
49451;BME280;35336;48.400;10.886;2024-02-26T01:17:47;94474.03;;;2.76;89.98
49451;BME280;35336;48.400;10.886;2024-02-26T01:18:02;94493.75;;;2.86;89.71
49451;BME280;35336;48.400;10.886;2024-02-26T01:18:18;94495.56;;;2.86;89.72
49451;BME280;35336;48.400;10.886;2024-02-26T01:18:33;94490.06;;;2.81;89.75
49451;BME280;35336;48.400;10.886;2024-02-26T01:18:48;94488.84;;;2.83;89.82
49451;BME280;35336;48.400;10.886;2024-02-26T01:19:06;94497.38;;;2.85;89.76
49451;BME280;35336;48.400;10.886;2024-02-26T01:19:24;94498.00;;;2.88;89.68
49451;BME280;35336;48.400;10.886;2024-02-26T01:19:39;94494.38;;;2.89;90.16
49451;BME280;35336;48.400;10.886;2024-02-26T01:19:54;94491.09;;;2.86;90.00
49451;BME280;35336;48.400;10.886;2024-02-26T01:20:12;94498.00;;;2.88;90.01
49451;BME280;35336;48.400;10.886;2024-02-26T01:20:27;94491.47;;;2.83;90.13
49451;BME280;35336;48.400;10.886;2024-02-26T01:20:43;94473.59;;;2.72;90.29
49451;BME280;35336;48.400;10.886;2024-02-26T01:20:58;94495.75;;;2.84;90.18
49451;BME280;35336;48.400;10.886;2024-02-26T01:21:15;94487.81;;;2.78;90.27
49451;BME280;35336;48.400;10.886;2024-02-26T01:21:31;94498.00;;;2.88;90.33
49451;BME280;35336;48.400;10.886;2024-02-26T01:21:49;94491.47;;;2.83;90.40
49451;BME280;35336;48.400;10.886;2024-02-26T01:22:06;94493.75;;;2.86;90.37
49451;BME280;35336;48.400;10.886;2024-02-26T01:22:22;94479.72;;;2.79;90.25
49451;BME280;35336;48.400;10.886;2024-02-26T01:22:37;94498.00;;;2.88;90.10
49451;BME280;35336;48.400;10.886;2024-02-26T01:22:55;94490.47;;;2.84;90.11
49451;BME280;35336;48.400;10.886;2024-02-26T01:23:10;94493.50;;;2.81;90.29
49451;BME280;35336;48.400;10.886;2024-02-26T01:23:28;94488.00;;;2.76;89.82
49451;BME280;35336;48.400;10.886;2024-02-26T01:23:43;94496.31;;;2.80;90.06
49451;BME280;35336;48.400;10.886;2024-02-26T01:23:58;94488.81;;;2.77;90.19
49451;BME280;35336;48.400;10.886;2024-02-26T01:24:14;94497.94;;;2.81;90.15
49451;BME280;35336;48.400;10.886;2024-02-26T01:24:29;94491.47;;;2.77;90.11
49451;BME280;35336;48.400;10.886;2024-02-26T01:24:44;94491.47;;;2.77;90.21